Terminal Aerodrome Forecast
Issued by NWS

Home | Current Version | Previous Version | Text Only | Print | Product List | Glossary On
Versions: 1 2 3 4 5 6 7 8 9 10 11 12 13 14 15 16 17 18
000
FTUS42 KTAE 011738
TAFVLD
TAF
KVLD 011738Z 0118/0218 30004KT P6SM SCT020
     FM020200 00000KT P6SM SCT250
     FM020600 00000KT 6SM BR OVC005
      TEMPO 0209/0213 1SM BR OVC001
     FM021500 16005KT P6SM BKN250=

USA.gov is the U.S. government's official web portal to all federal, state and local government web resources and services.